sensor_id;sensor_type;location;lat;lon;timestamp;pressure;altitude;pressure_sealevel;temperature;humidity
68986;BME280;56035;37.534;-122.308;2022-11-15T00:00:55;101701.94;;;11.96;53.60
68986;BME280;56035;37.534;-122.308;2022-11-15T00:03:23;101702.91;;;11.83;54.58
68986;BME280;56035;37.534;-122.308;2022-11-15T00:05:50;101706.81;;;11.76;55.15
68986;BME280;56035;37.534;-122.308;2022-11-15T00:08:16;101714.56;;;11.60;53.37
68986;BME280;56035;37.534;-122.308;2022-11-15T00:10:43;101713.78;;;11.53;54.88
68986;BME280;56035;37.534;-122.308;2022-11-15T00:13:11;101716.03;;;11.38;56.41
68986;BME280;56035;37.534;-122.308;2022-11-15T00:15:39;101713.19;;;11.26;57.02
68986;BME280;56035;37.534;-122.308;2022-11-15T00:18:06;101717.31;;;11.10;59.15
68986;BME280;56035;37.534;-122.308;2022-11-15T00:20:37;101719.97;;;10.92;58.81
68986;BME280;56035;37.534;-122.308;2022-11-15T00:23:04;101722.75;;;10.85;59.68
68986;BME280;56035;37.534;-122.308;2022-11-15T00:25:31;101724.72;;;10.78;60.06
68986;BME280;56035;37.534;-122.308;2022-11-15T00:27:58;101722.66;;;10.67;60.23
68986;BME280;56035;37.534;-122.308;2022-11-15T00:30:24;101719.69;;;10.62;60.02
68986;BME280;56035;37.534;-122.308;2022-11-15T00:32:51;101716.34;;;10.60;59.53
68986;BME280;56035;37.534;-122.308;2022-11-15T00:35:18;101712.31;;;10.55;60.34
68986;BME280;56035;37.534;-122.308;2022-11-15T00:37:44;101712.13;;;10.50;60.50
68986;BME280;56035;37.534;-122.308;2022-11-15T00:40:12;101711.94;;;10.45;60.83
68986;BME280;56035;37.534;-122.308;2022-11-15T00:42:41;101714.72;;;10.39;62.31
68986;BME280;56035;37.534;-122.308;2022-11-15T00:45:08;101713.66;;;10.33;62.72
68986;BME280;56035;37.534;-122.308;2022-11-15T00:47:34;101714.72;;;10.25;63.45
68986;BME280;56035;37.534;-122.308;2022-11-15T00:50:00;101715.41;;;10.21;64.17
68986;BME280;56035;37.534;-122.308;2022-11-15T00:52:26;101712.22;;;10.17;63.38
68986;BME280;56035;37.534;-122.308;2022-11-15T00:54:52;101705.44;;;10.13;63.61
68986;BME280;56035;37.534;-122.308;2022-11-15T00:57:18;101709.28;;;10.05;64.30
68986;BME280;56035;37.534;-122.308;2022-11-15T00:59:45;101714.81;;;9.99;64.45
68986;BME280;56035;37.534;-122.308;2022-11-15T01:02:11;101714.41;;;9.95;64.74
68986;BME280;56035;37.534;-122.308;2022-11-15T01:04:37;101721.59;;;9.90;64.47
68986;BME280;56035;37.534;-122.308;2022-11-15T01:07:03;101728.78;;;9.84;65.02
68986;BME280;56035;37.534;-122.308;2022-11-15T01:09:49;101719.50;;;9.78;64.90
68986;BME280;56035;37.534;-122.308;2022-11-15T01:12:15;101722.03;;;9.73;65.36
68986;BME280;56035;37.534;-122.308;2022-11-15T01:14:41;101719.94;;;9.69;65.41
68986;BME280;56035;37.534;-122.308;2022-11-15T01:17:07;101724.19;;;9.65;65.45
68986;BME280;56035;37.534;-122.308;2022-11-15T01:19:34;101727.56;;;9.60;64.90
68986;BME280;56035;37.534;-122.308;2022-11-15T01:22:00;101728.19;;;9.55;66.16
68986;BME280;56035;37.534;-122.308;2022-11-15T01:24:26;101725.88;;;9.52;66.04
68986;BME280;56035;37.534;-122.308;2022-11-15T01:26:52;101728.19;;;9.49;65.85
68986;BME280;56035;37.534;-122.308;2022-11-15T01:29:18;101723.97;;;9.46;66.44
68986;BME280;56035;37.534;-122.308;2022-11-15T01:31:44;101723.31;;;9.44;66.81
68986;BME280;56035;37.534;-122.308;2022-11-15T01:34:10;101718.47;;;9.40;67.15
68986;BME280;56035;37.534;-122.308;2022-11-15T01:36:37;101725.03;;;9.38;67.84
68986;BME280;56035;37.534;-122.308;2022-11-15T01:39:03;101727.97;;;9.37;68.25
68986;BME280;56035;37.534;-122.308;2022-11-15T01:41:32;101731.38;;;9.32;68.25
68986;BME280;56035;37.534;-122.308;2022-11-15T01:47:09;101735.56;;;9.28;68.26
68986;BME280;56035;37.534;-122.308;2022-11-15T01:49:39;101747.63;;;9.27;68.73
68986;BME280;56035;37.534;-122.308;2022-11-15T01:52:11;101743.38;;;9.25;69.21
68986;BME280;56035;37.534;-122.308;2022-11-15T01:54:39;101743.19;;;9.20;69.60
68986;BME280;56035;37.534;-122.308;2022-11-15T01:57:09;101745.09;;;9.19;69.86
68986;BME280;56035;37.534;-122.308;2022-11-15T01:59:38;101738.72;;;9.19;70.68
68986;BME280;56035;37.534;-122.308;2022-11-15T02:02:05;101744.03;;;9.13;69.67
68986;BME280;56035;37.534;-122.308;2022-11-15T02:04:33;101745.94;;;9.13;70.84
68986;BME280;56035;37.534;-122.308;2022-11-15T02:07:03;101754.38;;;9.11;71.31
68986;BME280;56035;37.534;-122.308;2022-11-15T02:09:50;101757.53;;;9.08;71.28
68986;BME280;56035;37.534;-122.308;2022-11-15T02:12:19;101756.06;;;9.06;71.16
68986;BME280;56035;37.534;-122.308;2022-11-15T02:14:50;101763.44;;;9.05;72.00
68986;BME280;56035;37.534;-122.308;2022-11-15T02:26:19;101769.34;;;8.96;72.73
68986;BME280;56035;37.534;-122.308;2022-11-15T02:37:39;101788.38;;;8.97;75.32
68986;BME280;56035;37.534;-122.308;2022-11-15T02:42:41;101790.47;;;8.88;76.84
68986;BME280;56035;37.534;-122.308;2022-11-15T02:45:32;101785.59;;;8.84;76.45
68986;BME280;56035;37.534;-122.308;2022-11-15T02:48:02;101795.75;;;8.83;76.62
68986;BME280;56035;37.534;-122.308;2022-11-15T02:50:31;101797.19;;;8.79;76.76
68986;BME280;56035;37.534;-122.308;2022-11-15T02:52:58;101800.34;;;8.76;77.40
68986;BME280;56035;37.534;-122.308;2022-11-15T02:55:33;101809.47;;;8.77;78.59
68986;BME280;56035;37.534;-122.308;2022-11-15T03:06:42;101808.78;;;8.68;77.55
68986;BME280;56035;37.534;-122.308;2022-11-15T03:09:29;101807.28;;;8.65;77.15
68986;BME280;56035;37.534;-122.308;2022-11-15T03:12:13;101808.09;;;8.59;77.66
68986;BME280;56035;37.534;-122.308;2022-11-15T03:18:01;101808.72;;;8.55;77.49
68986;BME280;56035;37.534;-122.308;2022-11-15T03:20:29;101814.81;;;8.50;78.26
68986;BME280;56035;37.534;-122.308;2022-11-15T03:23:01;101812.47;;;8.47;79.77
68986;BME280;56035;37.534;-122.308;2022-11-15T03:25:32;101820.06;;;8.45;78.88
68986;BME280;56035;37.534;-122.308;2022-11-15T03:28:25;101818.56;;;8.42;78.54
68986;BME280;56035;37.534;-122.308;2022-11-15T03:30:55;101823.22;;;8.42;79.18
68986;BME280;56035;37.534;-122.308;2022-11-15T03:33:22;101822.56;;;8.40;79.37
68986;BME280;56035;37.534;-122.308;2022-11-15T03:35:48;101825.03;;;8.35;80.81
68986;BME280;56035;37.534;-122.308;2022-11-15T03:38:17;101826.50;;;8.31;79.51
68986;BME280;56035;37.534;-122.308;2022-11-15T03:40:53;101819.69;;;8.27;79.23
68986;BME280;56035;37.534;-122.308;2022-11-15T03:46:14;101826.19;;;8.19;79.14
68986;BME280;56035;37.534;-122.308;2022-11-15T03:48:47;101827.66;;;8.15;79.26
68986;BME280;56035;37.534;-122.308;2022-11-15T03:51:14;101831.38;;;8.07;81.05
68986;BME280;56035;37.534;-122.308;2022-11-15T03:53:41;101835.56;;;8.03;81.51
68986;BME280;56035;37.534;-122.308;2022-11-15T03:56:07;101841.47;;;8.00;80.46
68986;BME280;56035;37.534;-122.308;2022-11-15T03:58:34;101834.47;;;7.97;80.35
68986;BME280;56035;37.534;-122.308;2022-11-15T04:01:00;101843.09;;;7.94;80.55
68986;BME280;56035;37.534;-122.308;2022-11-15T04:03:26;101843.53;;;7.91;81.10
68986;BME280;56035;37.534;-122.308;2022-11-15T04:05:52;101850.03;;;7.90;81.36
68986;BME280;56035;37.534;-122.308;2022-11-15T04:08:18;101844.94;;;7.87;80.97
68986;BME280;56035;37.534;-122.308;2022-11-15T04:10:45;101849.78;;;7.85;80.89
68986;BME280;56035;37.534;-122.308;2022-11-15T04:13:14;101850.19;;;7.82;80.90
68986;BME280;56035;37.534;-122.308;2022-11-15T04:15:40;101856.06;;;7.79;81.22
68986;BME280;56035;37.534;-122.308;2022-11-15T04:18:06;101863.63;;;7.77;82.21
68986;BME280;56035;37.534;-122.308;2022-11-15T04:20:32;101863.19;;;7.73;81.64
68986;BME280;56035;37.534;-122.308;2022-11-15T04:23:19;101861.66;;;7.71;82.06
68986;BME280;56035;37.534;-122.308;2022-11-15T04:26:16;101861.03;;;7.69;81.79
68986;BME280;56035;37.534;-122.308;2022-11-15T04:28:43;101865.00;;;7.66;82.66
68986;BME280;56035;37.534;-122.308;2022-11-15T04:31:27;101860.75;;;7.64;82.34
68986;BME280;56035;37.534;-122.308;2022-11-15T04:33:54;101866.47;;;7.62;82.67
68986;BME280;56035;37.534;-122.308;2022-11-15T04:36:21;101865.59;;;7.62;83.67
68986;BME280;56035;37.534;-122.308;2022-11-15T04:39:05;101869.38;;;7.61;83.56
68986;BME280;56035;37.534;-122.308;2022-11-15T04:41:32;101869.59;;;7.59;82.94
68986;BME280;56035;37.534;-122.308;2022-11-15T04:43:58;101876.97;;;7.59;82.98
68986;BME280;56035;37.534;-122.308;2022-11-15T04:46:24;101876.97;;;7.59;83.23
68986;BME280;56035;37.534;-122.308;2022-11-15T04:48:51;101883.09;;;7.61;84.53
68986;BME280;56035;37.534;-122.308;2022-11-15T04:51:17;101874.41;;;7.57;85.15
68986;BME280;56035;37.534;-122.308;2022-11-15T04:53:43;101880.50;;;7.53;85.13
68986;BME280;56035;37.534;-122.308;2022-11-15T04:56:10;101880.03;;;7.49;84.42
68986;BME280;56035;37.534;-122.308;2022-11-15T04:58:36;101882.94;;;7.47;83.54
68986;BME280;56035;37.534;-122.308;2022-11-15T05:01:13;101875.31;;;7.43;84.33
68986;BME280;56035;37.534;-122.308;2022-11-15T05:03:41;101876.16;;;7.43;84.71
68986;BME280;56035;37.534;-122.308;2022-11-15T05:06:25;101881.00;;;7.41;85.04
68986;BME280;56035;37.534;-122.308;2022-11-15T05:08:51;101880.34;;;7.39;84.07
68986;BME280;56035;37.534;-122.308;2022-11-15T05:11:18;101887.91;;;7.37;84.80
68986;BME280;56035;37.534;-122.308;2022-11-15T05:13:44;101882.63;;;7.36;84.87
68986;BME280;56035;37.534;-122.308;2022-11-15T05:16:10;101885.75;;;7.33;85.06
68986;BME280;56035;37.534;-122.308;2022-11-15T05:18:36;101889.53;;;7.32;84.88
68986;BME280;56035;37.534;-122.308;2022-11-15T05:21:08;101888.50;;;7.33;85.22
68986;BME280;56035;37.534;-122.308;2022-11-15T05:23:35;101893.50;;;7.29;84.25
68986;BME280;56035;37.534;-122.308;2022-11-15T05:26:02;101901.91;;;7.27;84.91
68986;BME280;56035;37.534;-122.308;2022-11-15T05:28:30;101902.31;;;7.24;84.90
68986;BME280;56035;37.534;-122.308;2022-11-15T05:31:04;101921.31;;;7.26;84.27
68986;BME280;56035;37.534;-122.308;2022-11-15T05:33:31;101915.34;;;7.22;84.72
68986;BME280;56035;37.534;-122.308;2022-11-15T05:36:37;101910.28;;;7.19;84.48
68986;BME280;56035;37.534;-122.308;2022-11-15T05:39:05;101907.25;;;7.14;84.69
68986;BME280;56035;37.534;-122.308;2022-11-15T05:41:38;101908.47;;;7.12;85.21
68986;BME280;56035;37.534;-122.308;2022-11-15T05:44:09;101913.09;;;7.11;85.33
68986;BME280;56035;37.534;-122.308;2022-11-15T05:46:37;101915.56;;;7.06;85.68
68986;BME280;56035;37.534;-122.308;2022-11-15T05:49:07;101918.50;;;7.04;85.50
68986;BME280;56035;37.534;-122.308;2022-11-15T05:51:36;101919.56;;;7.03;84.92
68986;BME280;56035;37.534;-122.308;2022-11-15T05:54:02;101907.25;;;6.99;84.77
68986;BME280;56035;37.534;-122.308;2022-11-15T05:56:29;101915.84;;;6.96;85.25
68986;BME280;56035;37.534;-122.308;2022-11-15T05:58:56;101908.03;;;6.93;85.28
68986;BME280;56035;37.534;-122.308;2022-11-15T06:01:25;101905.47;;;6.92;85.74
68986;BME280;56035;37.534;-122.308;2022-11-15T06:03:51;101908.41;;;6.90;85.92
68986;BME280;56035;37.534;-122.308;2022-11-15T06:06:17;101896.78;;;6.88;85.87
68986;BME280;56035;37.534;-122.308;2022-11-15T06:08:43;101900.56;;;6.87;86.38
68986;BME280;56035;37.534;-122.308;2022-11-15T06:11:10;101897.16;;;6.85;86.24
68986;BME280;56035;37.534;-122.308;2022-11-15T06:13:36;101901.13;;;6.83;87.26
68986;BME280;56035;37.534;-122.308;2022-11-15T06:16:02;101900.66;;;6.79;87.39
68986;BME280;56035;37.534;-122.308;2022-11-15T06:18:31;101907.56;;;6.75;87.40
68986;BME280;56035;37.534;-122.308;2022-11-15T06:21:00;101905.41;;;6.70;87.46
68986;BME280;56035;37.534;-122.308;2022-11-15T06:23:27;101903.69;;;6.69;87.62
68986;BME280;56035;37.534;-122.308;2022-11-15T06:25:57;101908.00;;;6.64;87.36
68986;BME280;56035;37.534;-122.308;2022-11-15T06:28:23;101908.00;;;6.64;87.63
68986;BME280;56035;37.534;-122.308;2022-11-15T06:30:49;101904.34;;;6.56;87.76
68986;BME280;56035;37.534;-122.308;2022-11-15T06:33:15;101915.50;;;6.55;87.83
68986;BME280;56035;37.534;-122.308;2022-11-15T06:35:41;101907.66;;;6.52;88.22
68986;BME280;56035;37.534;-122.308;2022-11-15T06:38:09;101911.97;;;6.46;88.81
68986;BME280;56035;37.534;-122.308;2022-11-15T06:40:37;101907.34;;;6.47;88.82
68986;BME280;56035;37.534;-122.308;2022-11-15T06:43:04;101909.59;;;6.43;89.87
68986;BME280;56035;37.534;-122.308;2022-11-15T06:45:31;101911.50;;;6.43;88.73
68986;BME280;56035;37.534;-122.308;2022-11-15T06:47:57;101908.28;;;6.39;88.89
68986;BME280;56035;37.534;-122.308;2022-11-15T06:50:24;101906.59;;;6.38;88.53
68986;BME280;56035;37.534;-122.308;2022-11-15T06:52:50;101907.97;;;6.34;88.70
68986;BME280;56035;37.534;-122.308;2022-11-15T06:55:16;101914.03;;;6.29;88.43
68986;BME280;56035;37.534;-122.308;2022-11-15T06:57:52;101917.81;;;6.28;88.83
68986;BME280;56035;37.534;-122.308;2022-11-15T07:00:19;101910.63;;;6.27;89.08
68986;BME280;56035;37.534;-122.308;2022-11-15T07:02:46;101916.97;;;6.28;88.98
68986;BME280;56035;37.534;-122.308;2022-11-15T07:05:13;101921.56;;;6.27;88.89
68986;BME280;56035;37.534;-122.308;2022-11-15T07:07:40;101922.44;;;6.28;88.93
68986;BME280;56035;37.534;-122.308;2022-11-15T07:10:07;101913.19;;;6.29;89.54
68986;BME280;56035;37.534;-122.308;2022-11-15T07:12:33;101913.34;;;6.27;88.73
68986;BME280;56035;37.534;-122.308;2022-11-15T07:14:59;101914.41;;;6.26;89.16
68986;BME280;56035;37.534;-122.308;2022-11-15T07:17:25;101919.88;;;6.26;89.42
68986;BME280;56035;37.534;-122.308;2022-11-15T07:19:51;101918.19;;;6.25;89.58
68986;BME280;56035;37.534;-122.308;2022-11-15T07:22:18;101911.50;;;6.28;89.29
68986;BME280;56035;37.534;-122.308;2022-11-15T07:24:44;101910.44;;;6.29;89.18
68986;BME280;56035;37.534;-122.308;2022-11-15T07:27:10;101911.28;;;6.29;88.93
68986;BME280;56035;37.534;-122.308;2022-11-15T07:29:36;101906.88;;;6.28;89.21
68986;BME280;56035;37.534;-122.308;2022-11-15T07:32:02;101912.13;;;6.30;89.38
68986;BME280;56035;37.534;-122.308;2022-11-15T07:34:28;101911.97;;;6.31;89.11
68986;BME280;56035;37.534;-122.308;2022-11-15T07:36:54;101915.34;;;6.33;88.83
68986;BME280;56035;37.534;-122.308;2022-11-15T07:39:20;101908.84;;;6.35;88.45
68986;BME280;56035;37.534;-122.308;2022-11-15T07:41:46;101909.88;;;6.33;88.60
68986;BME280;56035;37.534;-122.308;2022-11-15T07:44:13;101914.50;;;6.33;88.86
68986;BME280;56035;37.534;-122.308;2022-11-15T07:46:39;101911.78;;;6.33;89.28
68986;BME280;56035;37.534;-122.308;2022-11-15T07:49:06;101919.44;;;6.38;88.97
68986;BME280;56035;37.534;-122.308;2022-11-15T07:51:32;101910.72;;;6.34;89.55
68986;BME280;56035;37.534;-122.308;2022-11-15T07:53:58;101915.34;;;6.33;89.73
68986;BME280;56035;37.534;-122.308;2022-11-15T07:56:24;101918.28;;;6.32;88.95
68986;BME280;56035;37.534;-122.308;2022-11-15T07:58:50;101914.50;;;6.33;89.21
68986;BME280;56035;37.534;-122.308;2022-11-15T08:01:16;101911.28;;;6.29;89.66
68986;BME280;56035;37.534;-122.308;2022-11-15T08:03:42;101912.97;;;6.30;90.24
68986;BME280;56035;37.534;-122.308;2022-11-15T08:06:08;101917.63;;;6.30;89.96
68986;BME280;56035;37.534;-122.308;2022-11-15T08:08:35;101922.25;;;6.29;89.56
68986;BME280;56035;37.534;-122.308;2022-11-15T08:11:01;101916.28;;;6.26;89.41
68986;BME280;56035;37.534;-122.308;2022-11-15T08:13:28;101918.81;;;6.27;90.13
68986;BME280;56035;37.534;-122.308;2022-11-15T08:16:01;101918.19;;;6.25;89.98
68986;BME280;56035;37.534;-122.308;2022-11-15T08:18:28;101917.72;;;6.22;90.15
68986;BME280;56035;37.534;-122.308;2022-11-15T08:20:59;101916.19;;;6.19;90.07
68986;BME280;56035;37.534;-122.308;2022-11-15T08:23:25;101915.50;;;6.17;90.29
68986;BME280;56035;37.534;-122.308;2022-11-15T08:25:51;101911.44;;;6.13;90.32
68986;BME280;56035;37.534;-122.308;2022-11-15T08:28:17;101920.03;;;6.10;90.68
68986;BME280;56035;37.534;-122.308;2022-11-15T08:30:44;101924.34;;;6.04;91.36
68986;BME280;56035;37.534;-122.308;2022-11-15T08:33:11;101917.53;;;6.00;91.72
68986;BME280;56035;37.534;-122.308;2022-11-15T08:35:38;101915.72;;;5.93;91.51
68986;BME280;56035;37.534;-122.308;2022-11-15T08:38:04;101916.44;;;5.86;92.34
68986;BME280;56035;37.534;-122.308;2022-11-15T08:40:30;101929.13;;;5.79;92.74
68986;BME280;56035;37.534;-122.308;2022-11-15T08:42:56;101923.34;;;5.74;93.00
68986;BME280;56035;37.534;-122.308;2022-11-15T08:45:24;101917.06;;;5.66;93.12
68986;BME280;56035;37.534;-122.308;2022-11-15T08:47:50;101922.94;;;5.62;93.83
68986;BME280;56035;37.534;-122.308;2022-11-15T08:50:16;101927.03;;;5.58;93.12
68986;BME280;56035;37.534;-122.308;2022-11-15T08:52:42;101931.38;;;5.53;94.08
68986;BME280;56035;37.534;-122.308;2022-11-15T08:55:08;101917.19;;;5.49;95.93
68986;BME280;56035;37.534;-122.308;2022-11-15T08:57:35;101929.34;;;5.47;96.69
68986;BME280;56035;37.534;-122.308;2022-11-15T09:00:01;101921.38;;;5.37;96.21
68986;BME280;56035;37.534;-122.308;2022-11-15T09:02:27;101920.00;;;5.33;95.57
68986;BME280;56035;37.534;-122.308;2022-11-15T09:04:53;101921.59;;;5.27;95.75
68986;BME280;56035;37.534;-122.308;2022-11-15T09:07:19;101911.38;;;5.21;96.02
68986;BME280;56035;37.534;-122.308;2022-11-15T09:09:45;101910.22;;;5.15;96.75
68986;BME280;56035;37.534;-122.308;2022-11-15T09:12:11;101927.44;;;5.16;97.40
68986;BME280;56035;37.534;-122.308;2022-11-15T09:14:38;101928.00;;;5.11;97.36
68986;BME280;56035;37.534;-122.308;2022-11-15T09:17:07;101919.31;;;5.08;96.87
68986;BME280;56035;37.534;-122.308;2022-11-15T09:19:34;101925.13;;;5.05;97.57
68986;BME280;56035;37.534;-122.308;2022-11-15T09:22:00;101928.91;;;5.04;97.52
68986;BME280;56035;37.534;-122.308;2022-11-15T09:24:26;101934.16;;;5.05;97.36
68986;BME280;56035;37.534;-122.308;2022-11-15T09:26:52;101930.75;;;5.03;97.97
68986;BME280;56035;37.534;-122.308;2022-11-15T09:29:19;101938.94;;;5.03;97.68
68986;BME280;56035;37.534;-122.308;2022-11-15T09:31:45;101933.66;;;5.02;97.66
68986;BME280;56035;37.534;-122.308;2022-11-15T09:34:12;101935.38;;;5.03;98.05
68986;BME280;56035;37.534;-122.308;2022-11-15T09:36:38;101938.94;;;5.03;98.14
68986;BME280;56035;37.534;-122.308;2022-11-15T09:39:04;101924.28;;;5.04;98.60
68986;BME280;56035;37.534;-122.308;2022-11-15T09:49:27;101914.88;;;5.07;99.07
68986;BME280;56035;37.534;-122.308;2022-11-15T09:51:55;101923.56;;;5.10;98.77
68986;BME280;56035;37.534;-122.308;2022-11-15T09:54:34;101922.69;;;5.10;98.97
68986;BME280;56035;37.534;-122.308;2022-11-15T10:05:41;101930.94;;;5.02;98.00
68986;BME280;56035;37.534;-122.308;2022-11-15T10:10:48;101933.69;;;4.93;97.60
68986;BME280;56035;37.534;-122.308;2022-11-15T10:13:26;101931.84;;;4.86;98.05
68986;BME280;56035;37.534;-122.308;2022-11-15T10:16:04;101944.16;;;4.82;98.61
68986;BME280;56035;37.534;-122.308;2022-11-15T10:19:05;101943.66;;;4.78;99.17
68986;BME280;56035;37.534;-122.308;2022-11-15T10:21:46;101936.16;;;4.72;98.92
68986;BME280;56035;37.534;-122.308;2022-11-15T10:24:20;101953.03;;;4.67;99.15
68986;BME280;56035;37.534;-122.308;2022-11-15T10:26:55;101948.47;;;4.60;99.29
68986;BME280;56035;37.534;-122.308;2022-11-15T10:29:23;101956.00;;;4.58;100.00
68986;BME280;56035;37.534;-122.308;2022-11-15T10:31:49;101956.50;;;4.53;100.00
68986;BME280;56035;37.534;-122.308;2022-11-15T10:34:22;101954.13;;;4.50;99.78
68986;BME280;56035;37.534;-122.308;2022-11-15T10:37:00;101964.88;;;4.43;99.97
68986;BME280;56035;37.534;-122.308;2022-11-15T10:39:30;101963.53;;;4.39;99.54
68986;BME280;56035;37.534;-122.308;2022-11-15T10:41:56;101960.09;;;4.37;99.83
68986;BME280;56035;37.534;-122.308;2022-11-15T10:44:30;101959.09;;;4.30;100.00
68986;BME280;56035;37.534;-122.308;2022-11-15T10:49:27;101961.31;;;4.27;100.00
68986;BME280;56035;37.534;-122.308;2022-11-15T10:51:57;101961.50;;;4.25;100.00
68986;BME280;56035;37.534;-122.308;2022-11-15T10:54:44;101965.56;;;4.21;100.00
68986;BME280;56035;37.534;-122.308;2022-11-15T10:57:22;101966.25;;;4.15;100.00
68986;BME280;56035;37.534;-122.308;2022-11-15T11:00:25;101958.94;;;4.07;100.00
68986;BME280;56035;37.534;-122.308;2022-11-15T11:05:28;101968.81;;;4.00;100.00
68986;BME280;56035;37.534;-122.308;2022-11-15T11:10:31;101970.53;;;3.93;100.00
68986;BME280;56035;37.534;-122.308;2022-11-15T11:13:37;101976.47;;;3.88;100.00
68986;BME280;56035;37.534;-122.308;2022-11-15T11:29:31;101974.38;;;3.58;100.00
68986;BME280;56035;37.534;-122.308;2022-11-15T11:32:34;101978.28;;;3.55;100.00
68986;BME280;56035;37.534;-122.308;2022-11-15T11:35:22;101985.94;;;3.51;100.00
68986;BME280;56035;37.534;-122.308;2022-11-15T11:37:53;101991.19;;;3.53;100.00
68986;BME280;56035;37.534;-122.308;2022-11-15T11:43:58;101991.00;;;3.46;100.00
68986;BME280;56035;37.534;-122.308;2022-11-15T11:49:26;101995.41;;;3.39;100.00
68986;BME280;56035;37.534;-122.308;2022-11-15T11:51:56;101992.03;;;3.37;100.00
68986;BME280;56035;37.534;-122.308;2022-11-15T11:54:34;102003.06;;;3.36;100.00
68986;BME280;56035;37.534;-122.308;2022-11-15T11:57:09;102002.22;;;3.35;100.00
68986;BME280;56035;37.534;-122.308;2022-11-15T11:59:55;102007.66;;;3.35;100.00
68986;BME280;56035;37.534;-122.308;2022-11-15T12:02:30;101999.50;;;3.35;100.00
68986;BME280;56035;37.534;-122.308;2022-11-15T12:05:34;101996.25;;;3.32;100.00
68986;BME280;56035;37.534;-122.308;2022-11-15T12:11:04;102003.91;;;3.28;100.00
68986;BME280;56035;37.534;-122.308;2022-11-15T12:13:33;102011.91;;;3.29;100.00
68986;BME280;56035;37.534;-122.308;2022-11-15T12:16:09;102023.63;;;3.22;100.00
68986;BME280;56035;37.534;-122.308;2022-11-15T12:18:38;102027.38;;;3.21;100.00
68986;BME280;56035;37.534;-122.308;2022-11-15T12:24:44;102025.09;;;3.16;100.00
68986;BME280;56035;37.534;-122.308;2022-11-15T12:27:19;102018.28;;;3.12;100.00
68986;BME280;56035;37.534;-122.308;2022-11-15T12:29:51;102023.03;;;3.10;100.00
68986;BME280;56035;37.534;-122.308;2022-11-15T12:33:28;102017.75;;;3.09;100.00
68986;BME280;56035;37.534;-122.308;2022-11-15T12:35:42;102016.75;;;3.10;100.00
68986;BME280;56035;37.534;-122.308;2022-11-15T12:39:10;102020.31;;;3.10;100.00
68986;BME280;56035;37.534;-122.308;2022-11-15T12:41:19;102018.78;;;3.08;100.00
68986;BME280;56035;37.534;-122.308;2022-11-15T12:43:47;102021.19;;;3.11;100.00
68986;BME280;56035;37.534;-122.308;2022-11-15T12:59:59;102028.97;;;3.05;100.00
68986;BME280;56035;37.534;-122.308;2022-11-15T13:07:54;102034.09;;;3.09;100.00
68986;BME280;56035;37.534;-122.308;2022-11-15T13:12:58;102030.41;;;3.18;100.00
68986;BME280;56035;37.534;-122.308;2022-11-15T13:15:45;102030.56;;;3.16;100.00
68986;BME280;56035;37.534;-122.308;2022-11-15T13:18:35;102028.53;;;3.18;100.00
68986;BME280;56035;37.534;-122.308;2022-11-15T13:21:03;102027.50;;;3.19;100.00
68986;BME280;56035;37.534;-122.308;2022-11-15T13:23:54;102030.22;;;3.19;100.00
68986;BME280;56035;37.534;-122.308;2022-11-15T13:26:21;102024.78;;;3.19;100.00
68986;BME280;56035;37.534;-122.308;2022-11-15T13:28:49;102019.34;;;3.19;100.00
68986;BME280;56035;37.534;-122.308;2022-11-15T13:33:58;102024.97;;;3.18;100.00
68986;BME280;56035;37.534;-122.308;2022-11-15T13:36:31;102015.06;;;3.17;100.00
68986;BME280;56035;37.534;-122.308;2022-11-15T13:39:05;102018.16;;;3.22;100.00
68986;BME280;56035;37.534;-122.308;2022-11-15T13:41:36;102022.44;;;3.24;100.00
68986;BME280;56035;37.534;-122.308;2022-11-15T13:44:27;102025.50;;;3.21;100.00
68986;BME280;56035;37.534;-122.308;2022-11-15T13:49:32;102025.31;;;3.23;100.00
68986;BME280;56035;37.534;-122.308;2022-11-15T13:52:01;102018.16;;;3.22;100.00
68986;BME280;56035;37.534;-122.308;2022-11-15T13:54:38;102023.94;;;3.19;100.00
68986;BME280;56035;37.534;-122.308;2022-11-15T13:57:23;102029.06;;;3.22;100.00
68986;BME280;56035;37.534;-122.308;2022-11-15T14:00:00;102028.03;;;3.23;100.00
68986;BME280;56035;37.534;-122.308;2022-11-15T14:02:31;102029.22;;;3.20;100.00
68986;BME280;56035;37.534;-122.308;2022-11-15T14:07:27;102015.06;;;3.17;100.00
68986;BME280;56035;37.534;-122.308;2022-11-15T14:09:54;102022.88;;;3.12;100.00
68986;BME280;56035;37.534;-122.308;2022-11-15T14:12:25;102023.22;;;3.09;100.00
68986;BME280;56035;37.534;-122.308;2022-11-15T14:14:51;102018.09;;;3.05;100.00
68986;BME280;56035;37.534;-122.308;2022-11-15T14:19:57;102032.34;;;2.99;100.00
68986;BME280;56035;37.534;-122.308;2022-11-15T14:22:25;102034.34;;;2.97;100.00
68986;BME280;56035;37.534;-122.308;2022-11-15T14:25:20;102026.53;;;2.94;100.00
68986;BME280;56035;37.534;-122.308;2022-11-15T14:30:52;102044.91;;;2.92;100.00
68986;BME280;56035;37.534;-122.308;2022-11-15T14:33:36;102046.91;;;2.90;100.00
68986;BME280;56035;37.534;-122.308;2022-11-15T14:36:11;102057.81;;;2.90;100.00
68986;BME280;56035;37.534;-122.308;2022-11-15T14:38:38;102058.13;;;2.87;100.00
68986;BME280;56035;37.534;-122.308;2022-11-15T14:41:04;102065.28;;;2.88;100.00
68986;BME280;56035;37.534;-122.308;2022-11-15T14:43:31;102062.72;;;2.87;100.00
68986;BME280;56035;37.534;-122.308;2022-11-15T14:45:57;102065.94;;;2.82;100.00
68986;BME280;56035;37.534;-122.308;2022-11-15T14:48:23;102070.00;;;2.78;100.00
68986;BME280;56035;37.534;-122.308;2022-11-15T14:50:49;102081.88;;;2.77;100.00